Time;durP1;ratioP1;P1;durP2;ratioP2;P2;SDS_P1;SDS_P2;PMS_P1;PMS_P2;Temp;Humidity;BMP_temperature;BMP_pressure;BME280_temperature;BME280_humidity;BME280_pressure;Samples;Min_cycle;Max_cycle;Signal;HPM_P1;HPM_P2
2022/01/02 00:02:15;;;;;;;12.43;6.97;;;;;;;9.77;100.00;101213.69;4945533;28;20042;-83
2022/01/02 00:04:50;;;;;;;12.10;6.70;;;;;;;9.77;100.00;101207.53;4969885;28;20042;-84
2022/01/02 00:07:19;;;;;;;11.38;7.30;;;;;;;9.70;100.00;101196.16;4972821;28;20053;-83
2022/01/02 00:09:50;;;;;;;12.25;7.75;;;;;;;9.70;100.00;101197.91;4956270;28;20097;-84
2022/01/02 00:12:21;;;;;;;12.43;7.22;;;;;;;9.71;100.00;101197.91;4956536;28;20572;-85
2022/01/02 00:14:54;;;;;;;13.43;6.88;;;;;;;9.69;100.00;101190.88;4965304;28;20042;-84
2022/01/02 00:17:24;;;;;;;12.93;7.78;;;;;;;9.75;100.00;101175.88;4969316;28;20054;-83
2022/01/02 00:19:56;;;;;;;10.38;5.90;;;;;;;9.70;100.00;101172.41;4958789;28;20049;-85
2022/01/02 00:22:31;;;;;;;11.85;6.38;;;;;;;9.65;100.00;101173.31;4951881;28;20126;-84
2022/01/02 00:24:58;;;;;;;13.82;7.20;;;;;;;9.65;100.00;101157.50;4942975;28;20128;-83
2022/01/02 00:27:27;;;;;;;12.07;7.20;;;;;;;9.62;100.00;101161.03;4960822;28;20042;-84
2022/01/02 00:29:57;;;;;;;10.25;6.68;;;;;;;9.62;100.00;101154.88;4951964;28;20039;-83
2022/01/02 00:32:24;;;;;;;12.85;6.05;;;;;;;9.61;100.00;101148.75;4971473;28;20050;-85
2022/01/02 00:34:57;;;;;;;12.40;6.47;;;;;;;9.64;100.00;101134.63;4956998;28;20038;-84
2022/01/02 00:37:24;;;;;;;11.23;6.28;;;;;;;9.61;100.00;101130.28;4953688;28;20043;-83
2022/01/02 00:39:51;;;;;;;12.77;6.32;;;;;;;9.48;100.00;101133.91;4957572;28;20038;-84
2022/01/02 00:42:32;;;;;;;10.80;6.22;;;;;;;9.40;100.00;101131.31;4930974;28;20161;-85
2022/01/02 00:45:07;;;;;;;11.25;5.88;;;;;;;9.37;100.00;101127.84;4942187;28;20552;-87
2022/01/02 00:47:50;;;;;;;8.38;6.00;;;;;;;9.27;100.00;101127.03;4960964;28;20070;-83
2022/01/02 00:50:20;;;;;;;9.52;5.53;;;;;;;9.25;100.00;101119.16;4956490;28;20060;-84
2022/01/02 00:52:49;;;;;;;9.27;5.88;;;;;;;9.21;100.00;101121.81;4946915;28;20046;-83
2022/01/02 00:55:23;;;;;;;9.15;6.15;;;;;;;9.17;100.00;101120.09;4946881;28;20097;-83
2022/01/02 00:57:57;;;;;;;8.93;6.05;;;;;;;9.13;100.00;101119.22;4936831;28;20063;-84
2022/01/02 01:00:24;;;;;;;10.50;5.47;;;;;;;9.12;100.00;101130.66;4954368;28;20045;-84
2022/01/02 01:02:54;;;;;;;10.90;6.28;;;;;;;9.06;100.00;101124.56;4968460;28;20043;-83
2022/01/02 01:05:30;;;;;;;8.15;5.43;;;;;;;8.98;100.00;101127.22;4958619;28;20132;-83
2022/01/02 01:08:01;;;;;;;10.88;5.88;;;;;;;8.98;100.00;101127.22;4973289;28;20100;-83
2022/01/02 01:10:31;;;;;;;10.43;5.88;;;;;;;8.95;100.00;101120.22;4954856;28;20038;-85
2022/01/02 01:13:01;;;;;;;13.25;6.72;;;;;;;8.91;100.00;101120.25;4960776;28;20069;-84
2022/01/02 01:15:32;;;;;;;11.98;6.35;;;;;;;8.87;100.00;101114.13;4958996;28;20566;-83
2022/01/02 01:18:03;;;;;;;8.07;5.88;;;;;;;8.83;100.00;101103.59;4958156;28;20409;-83
2022/01/02 01:20:34;;;;;;;10.63;5.45;;;;;;;8.85;100.00;101088.69;4956945;28;20053;-84
2022/01/02 01:23:03;;;;;;;9.55;5.43;;;;;;;8.80;100.00;101066.75;4973575;28;20043;-83
2022/01/02 01:25:30;;;;;;;7.47;6.03;;;;;;;8.79;100.00;101055.34;4957584;28;20034;-85
2022/01/02 01:27:56;;;;;;;9.93;6.10;;;;;;;8.79;100.00;101044.81;4953207;28;20419;-83
2022/01/02 01:30:27;;;;;;;9.75;5.88;;;;;;;8.86;100.00;101049.16;4981793;28;20038;-85
2022/01/02 01:32:54;;;;;;;9.93;5.93;;;;;;;8.83;100.00;101049.19;4937781;28;20142;-83
2022/01/02 01:35:31;;;;;;;9.95;5.63;;;;;;;8.79;100.00;101060.63;4953061;28;20041;-83
2022/01/02 01:37:57;;;;;;;13.32;6.40;;;;;;;8.78;100.00;101044.81;4970075;28;20042;-83
2022/01/02 01:40:24;;;;;;;14.40;5.78;;;;;;;8.84;100.00;101034.25;4944973;28;20043;-85
2022/01/02 01:43:02;;;;;;;10.07;6.25;;;;;;;8.82;100.00;101041.28;4940831;28;20071;-83
2022/01/02 01:45:30;;;;;;;11.15;5.80;;;;;;;8.80;100.00;101046.56;4955138;28;20034;-84
2022/01/02 01:48:03;;;;;;;10.68;6.10;;;;;;;8.80;100.00;101046.56;4957355;28;20050;-84
2022/01/02 01:50:38;;;;;;;9.88;5.40;;;;;;;8.72;100.00;101037.81;4957014;28;20042;-85
2022/01/02 01:53:05;;;;;;;8.60;5.18;;;;;;;8.74;100.00;101041.31;4973417;28;20134;-85
2022/01/02 01:55:34;;;;;;;10.02;5.20;;;;;;;8.70;100.00;101050.13;4973820;28;20064;-83
2022/01/02 01:58:02;;;;;;;10.25;5.28;;;;;;;8.68;100.00;101037.00;4956973;28;20524;-85
2022/01/02 02:00:33;;;;;;;7.07;4.25;;;;;;;8.65;100.00;101022.94;4958084;28;20038;-84
2022/01/02 02:03:01;;;;;;;7.78;5.15;;;;;;;8.66;100.00;101015.06;4964189;28;20487;-84
2022/01/02 02:05:28;;;;;;;10.85;5.25;;;;;;;8.70;100.00;101008.00;4956239;28;20769;-83
2022/01/02 02:08:01;;;;;;;8.90;5.43;;;;;;;8.70;100.00;100998.34;4937024;28;20042;-83
2022/01/02 02:10:34;;;;;;;10.48;5.20;;;;;;;8.64;100.00;101002.75;4955811;28;20496;-83
2022/01/02 02:13:03;;;;;;;11.27;4.93;;;;;;;8.55;100.00;101003.69;4941206;28;20081;-84
2022/01/02 02:15:30;;;;;;;9.10;5.57;;;;;;;8.56;100.00;100989.66;4942062;28;20489;-83
2022/01/02 02:17:57;;;;;;;8.55;5.18;;;;;;;8.51;100.00;100983.56;4974720;28;20050;-83
2022/01/02 02:20:27;;;;;;;7.53;4.93;;;;;;;8.61;100.00;100979.09;4973964;28;20092;-83
2022/01/02 02:22:55;;;;;;;6.95;4.25;;;;;;;8.53;100.00;100967.75;4953576;28;20416;-83
2022/01/02 02:25:25;;;;;;;9.15;4.85;;;;;;;8.55;100.00;100961.56;4962176;28;20030;-83
2022/01/02 02:27:56;;;;;;;10.90;4.80;;;;;;;8.49;100.00;100948.44;4956409;28;20050;-82
2022/01/02 02:30:24;;;;;;;7.57;4.80;;;;;;;8.45;100.00;100949.38;4948923;28;20051;-83
2022/01/02 02:32:54;;;;;;;10.45;5.47;;;;;;;8.43;100.00;100946.75;4970863;28;20054;-83
2022/01/02 02:35:21;;;;;;;10.43;4.85;;;;;;;8.43;100.00;100952.00;4954907;28;20046;-82
2022/01/02 02:37:49;;;;;;;6.90;4.40;;;;;;;8.40;100.00;100952.00;4956055;28;20539;-83
2022/01/02 02:40:17;;;;;;;7.18;4.55;;;;;;;8.37;100.00;100953.81;4972525;28;20046;-83
2022/01/02 02:42:55;;;;;;;7.53;4.55;;;;;;;8.41;100.00;100937.13;4943287;28;20053;-83
2022/01/02 02:51:07;;;;;;;7.63;4.65;;;;;;;8.43;100.00;100957.28;4961179;28;20488;-83
2022/01/02 02:53:38;;;;;;;7.90;4.63;;;;;;;8.41;100.00;100961.69;4960238;28;20054;-83
2022/01/02 02:56:15;;;;;;;8.52;4.68;;;;;;;8.50;100.00;100955.47;4967655;28;20043;-83
2022/01/02 02:58:41;;;;;;;8.80;4.95;;;;;;;8.43;100.00;100943.25;4961275;28;20526;-82
2022/01/02 03:01:15;;;;;;;8.93;5.03;;;;;;;8.52;100.00;100931.75;4954976;28;20035;-82
2022/01/02 03:03:42;;;;;;;8.38;4.43;;;;;;;8.43;100.00;100943.25;4952310;28;20066;-82
2022/01/02 03:06:09;;;;;;;6.55;4.68;;;;;;;8.36;100.00;100936.25;4973745;28;20089;-82
2022/01/02 03:08:37;;;;;;;7.72;4.88;;;;;;;8.45;100.00;100920.41;4976029;28;20094;-82
2022/01/02 03:11:10;;;;;;;7.05;4.82;;;;;;;8.45;100.00;100907.22;4938917;28;20045;-82
2022/01/02 03:13:37;;;;;;;6.88;4.55;;;;;;;8.38;100.00;100901.13;4959976;28;20046;-83
2022/01/02 03:16:04;;;;;;;7.38;4.75;;;;;;;8.34;100.00;100899.38;4942495;28;20038;-82
2022/01/02 03:18:31;;;;;;;8.35;5.05;;;;;;;8.35;100.00;100895.03;4943432;28;20058;-84
2022/01/02 03:20:58;;;;;;;7.88;4.30;;;;;;;8.36;100.00;100886.25;4953272;28;20050;-84
2022/01/02 03:23:25;;;;;;;9.85;4.95;;;;;;;8.31;100.00;100898.53;4955404;28;20102;-84
2022/01/02 03:25:52;;;;;;;9.25;5.50;;;;;;;8.35;100.00;100893.28;4973050;28;20046;-83
2022/01/02 03:28:18;;;;;;;6.80;4.75;;;;;;;8.31;100.00;100886.22;4934127;28;20049;-84
2022/01/02 03:30:45;;;;;;;7.95;4.78;;;;;;;8.27;100.00;100884.53;4958299;28;20046;-83
2022/01/02 03:33:12;;;;;;;7.35;5.05;;;;;;;8.26;100.00;100872.25;4946123;28;20043;-84
2022/01/02 03:35:38;;;;;;;6.07;4.20;;;;;;;8.23;100.00;100871.38;4959743;28;20706;-84
2022/01/02 03:38:05;;;;;;;9.63;5.55;;;;;;;8.23;100.00;100856.47;4958610;28;20699;-84
2022/01/02 03:40:32;;;;;;;9.02;5.18;;;;;;;8.27;100.00;100849.44;4943434;28;20408;-83
2022/01/02 03:42:59;;;;;;;11.68;6.05;;;;;;;8.29;100.00;100847.66;4935471;28;20046;-83
2022/01/02 03:45:26;;;;;;;8.85;5.03;;;;;;;8.31;100.00;100852.00;4959851;28;20046;-83
2022/01/02 03:47:53;;;;;;;11.15;5.22;;;;;;;8.34;100.00;100841.47;4942356;28;20046;-83
2022/01/02 03:50:20;;;;;;;7.93;4.97;;;;;;;8.39;100.00;100841.44;4975483;28;20733;-86
2022/01/02 03:52:46;;;;;;;8.40;5.57;;;;;;;8.34;100.00;100856.41;4953549;28;20098;-83
2022/01/02 03:55:13;;;;;;;11.38;5.78;;;;;;;8.35;100.00;100872.22;4959164;28;20049;-84
2022/01/02 03:57:40;;;;;;;11.13;6.20;;;;;;;8.32;100.00;100866.03;4973924;28;20069;-84
2022/01/02 04:00:10;;;;;;;8.75;4.95;;;;;;;8.31;100.00;100849.38;4942971;28;20038;-84
2022/01/02 04:02:37;;;;;;;10.80;5.82;;;;;;;8.26;100.00;100856.47;4956947;28;20042;-84
2022/01/02 04:05:06;;;;;;;6.90;4.57;;;;;;;8.18;100.00;100848.63;4940473;28;20101;-83
2022/01/02 04:07:33;;;;;;;9.38;5.35;;;;;;;8.17;100.00;100854.78;4947399;28;20735;-84
2022/01/02 04:10:04;;;;;;;8.48;5.22;;;;;;;8.15;100.00;100855.66;4956723;28;20050;-85
2022/01/02 04:12:31;;;;;;;9.68;5.10;;;;;;;8.13;100.00;100849.53;4973098;28;20042;-83
2022/01/02 04:14:58;;;;;;;8.77;5.45;;;;;;;8.08;100.00;100843.44;4958555;28;20421;-85
2022/01/02 04:17:25;;;;;;;9.30;5.25;;;;;;;8.07;100.00;100850.47;4957663;28;20048;-83
2022/01/02 04:19:52;;;;;;;11.45;5.40;;;;;;;8.07;100.00;100860.09;4943103;28;20100;-84
2022/01/02 04:22:19;;;;;;;7.30;4.93;;;;;;;8.08;100.00;100839.06;4957580;28;20054;-83
2022/01/02 04:24:45;;;;;;;9.48;5.07;;;;;;;8.08;100.00;100833.78;4962524;28;20050;-85
2022/01/02 04:27:12;;;;;;;10.80;5.60;;;;;;;8.14;100.00;100828.47;4940609;28;20038;-83
2022/01/02 04:29:39;;;;;;;10.98;6.85;;;;;;;8.12;100.00;100851.28;4958420;28;20050;-83
2022/01/02 04:32:06;;;;;;;9.13;5.32;;;;;;;8.12;100.00;100840.75;4954203;28;20567;-83
2022/01/02 04:34:32;;;;;;;6.22;4.70;;;;;;;8.09;100.00;100845.19;4947962;28;20396;-84
2022/01/02 04:36:59;;;;;;;7.50;5.05;;;;;;;8.11;100.00;100838.16;4939785;28;20039;-84
2022/01/02 04:39:26;;;;;;;10.18;5.18;;;;;;;8.07;100.00;100836.41;4957004;28;20050;-84
2022/01/02 04:41:53;;;;;;;8.63;5.18;;;;;;;8.06;100.00;100847.81;4953893;28;20073;-84
2022/01/02 04:44:20;;;;;;;9.20;5.20;;;;;;;8.06;100.00;100839.94;4959280;28;20046;-84
2022/01/02 04:46:46;;;;;;;7.28;5.35;;;;;;;8.08;100.00;100833.78;4954458;28;20093;-83
2022/01/02 04:49:13;;;;;;;8.30;5.50;;;;;;;7.99;100.00;100827.69;4942406;28;20108;-85
2022/01/02 04:51:40;;;;;;;10.50;5.70;;;;;;;7.94;100.00;100825.13;4948206;28;20050;-84
2022/01/02 04:54:06;;;;;;;9.17;5.40;;;;;;;7.88;100.00;100818.13;4943352;28;20049;-84
2022/01/02 04:56:33;;;;;;;10.00;4.88;;;;;;;7.80;100.00;100819.94;4939416;28;20039;-84
2022/01/02 04:59:00;;;;;;;9.55;5.50;;;;;;;7.87;100.00;100831.31;4955418;28;20047;-84
2022/01/02 05:01:26;;;;;;;7.40;5.47;;;;;;;7.86;100.00;100819.91;4953466;28;20460;-84
2022/01/02 05:03:53;;;;;;;9.02;5.65;;;;;;;7.83;100.00;100808.53;4942464;28;20409;-83
2022/01/02 05:06:20;;;;;;;9.65;5.32;;;;;;;7.89;100.00;100803.22;4956924;28;20030;-83
2022/01/02 05:08:47;;;;;;;8.68;5.47;;;;;;;7.86;100.00;100809.38;4955777;28;20047;-85
2022/01/02 05:11:14;;;;;;;12.20;5.53;;;;;;;7.80;100.00;100791.00;4954574;28;20050;-84
2022/01/02 05:13:41;;;;;;;9.27;6.13;;;;;;;7.80;100.00;100796.25;4958673;28;20670;-84
2022/01/02 05:16:08;;;;;;;9.52;6.30;;;;;;;7.82;100.00;100793.66;4956921;28;20452;-85
2022/01/02 05:18:34;;;;;;;8.07;5.50;;;;;;;7.82;100.00;100791.91;4970768;28;20484;-84
2022/01/02 05:21:01;;;;;;;8.63;5.80;;;;;;;7.84;100.00;100782.22;4966415;28;20050;-84
2022/01/02 05:23:29;;;;;;;8.97;5.87;;;;;;;7.90;100.00;100769.03;4952440;28;20058;-84
2022/01/02 05:25:59;;;;;;;9.30;5.55;;;;;;;7.88;100.00;100765.53;4956550;28;20046;-85
2022/01/02 05:28:26;;;;;;;10.68;6.15;;;;;;;7.86;100.00;100743.63;4939392;28;20501;-85
2022/01/02 05:30:53;;;;;;;10.60;5.90;;;;;;;7.82;100.00;100759.47;4953431;28;20046;-83
2022/01/02 05:33:19;;;;;;;9.48;6.03;;;;;;;7.78;100.00;100755.97;4965487;28;20053;-84
2022/01/02 05:35:46;;;;;;;9.27;6.03;;;;;;;7.79;100.00;100756.84;4953707;28;20042;-85
2022/01/02 05:38:13;;;;;;;9.93;6.77;;;;;;;7.77;100.00;100746.34;4954793;28;20049;-84
2022/01/02 05:40:39;;;;;;;10.30;6.25;;;;;;;7.76;100.00;100747.22;4956961;28;20092;-84
2022/01/02 05:43:06;;;;;;;9.23;5.45;;;;;;;7.82;100.00;100751.56;4952203;28;20456;-84
2022/01/02 05:45:33;;;;;;;10.85;6.13;;;;;;;7.73;100.00;100748.97;4980356;28;20050;-84
2022/01/02 05:48:05;;;;;;;9.17;6.10;;;;;;;7.79;100.00;100749.81;4939431;28;20034;-85
2022/01/02 05:50:32;;;;;;;9.07;6.13;;;;;;;7.83;100.00;100733.13;4969877;28;20047;-84
2022/01/02 05:52:59;;;;;;;10.00;5.43;;;;;;;7.72;100.00;100732.31;4956011;28;20047;-84
2022/01/02 05:55:25;;;;;;;9.80;6.60;;;;;;;7.71;100.00;100727.09;4969096;28;20065;-84
2022/01/02 05:57:52;;;;;;;10.20;6.27;;;;;;;7.71;100.00;100735.84;4943201;28;20049;-84
2022/01/02 06:00:18;;;;;;;10.48;5.75;;;;;;;7.74;100.00;100730.59;4956552;28;20073;-84
2022/01/02 06:02:49;;;;;;;11.13;6.60;;;;;;;7.71;100.00;100727.97;4931517;28;20130;-83
2022/01/02 06:05:16;;;;;;;11.17;5.80;;;;;;;7.75;100.00;100734.97;4956172;28;20043;-84
2022/01/02 06:07:43;;;;;;;12.37;6.47;;;;;;;7.72;100.00;100732.31;4936316;28;20038;-83
2022/01/02 06:10:10;;;;;;;10.27;6.45;;;;;;;7.78;100.00;100727.03;4954800;28;20134;-84
2022/01/02 06:12:36;;;;;;;11.55;5.97;;;;;;;7.80;100.00;100716.50;4952631;28;20042;-84
2022/01/02 06:15:03;;;;;;;10.27;6.45;;;;;;;7.79;100.00;100704.22;4956260;28;20419;-86
2022/01/02 06:17:30;;;;;;;8.07;5.50;;;;;;;7.87;100.00;100682.25;4957691;28;20039;-85
2022/01/02 06:19:57;;;;;;;10.50;6.10;;;;;;;7.86;100.00;100679.63;4960108;28;20448;-86
2022/01/02 06:22:24;;;;;;;11.27;6.43;;;;;;;7.82;100.00;100678.78;4958427;28;20048;-86
2022/01/02 06:24:51;;;;;;;9.38;6.05;;;;;;;7.79;100.00;100684.06;4961197;28;20034;-86
2022/01/02 06:27:19;;;;;;;8.82;6.22;;;;;;;7.84;100.00;100678.78;4957273;28;20038;-85
2022/01/02 06:29:46;;;;;;;8.88;6.30;;;;;;;7.78;100.00;100682.31;4943522;28;20047;-85
2022/01/02 06:32:13;;;;;;;10.50;6.13;;;;;;;7.86;100.00;100695.41;4941365;28;20550;-84
2022/01/02 06:34:40;;;;;;;10.37;5.57;;;;;;;7.85;100.00;100697.16;4960990;28;20045;-85
2022/01/02 06:37:06;;;;;;;9.07;5.70;;;;;;;7.80;100.00;100685.81;4956024;28;20038;-85
2022/01/02 06:39:33;;;;;;;8.75;6.05;;;;;;;7.86;100.00;100666.47;4943434;28;20047;-86
2022/01/02 06:42:01;;;;;;;10.18;6.28;;;;;;;7.89;100.00;100654.16;4942069;28;20046;-87
2022/01/02 06:44:27;;;;;;;7.97;5.88;;;;;;;7.90;100.00;100665.53;4936133;28;20050;-87
2022/01/02 06:46:54;;;;;;;9.57;5.88;;;;;;;7.86;100.00;100669.97;4960163;28;20057;-86
2022/01/02 06:49:20;;;;;;;10.75;6.65;;;;;;;7.90;100.00;100665.53;4946107;28;20054;-84
2022/01/02 06:51:47;;;;;;;10.18;6.35;;;;;;;7.87;100.00;100648.03;4959953;28;20071;-86
2022/01/02 06:54:14;;;;;;;10.02;6.07;;;;;;;7.89;100.00;100648.88;4963189;28;20108;-84
2022/01/02 06:56:41;;;;;;;13.00;6.40;;;;;;;7.91;100.00;100667.31;4957102;28;20038;-84
2022/01/02 06:59:07;;;;;;;9.85;6.55;;;;;;;7.96;100.00;100660.22;4958451;28;20102;-85
2022/01/02 07:01:34;;;;;;;9.80;6.45;;;;;;;7.94;100.00;100638.34;4950884;28;20045;-85
2022/01/02 07:04:01;;;;;;;14.35;6.90;;;;;;;7.98;100.00;100623.38;4960777;28;20110;-85
2022/01/02 07:06:28;;;;;;;10.25;6.63;;;;;;;7.95;100.00;100626.94;4972199;28;20559;-85
2022/01/02 07:08:55;;;;;;;9.55;6.55;;;;;;;7.94;100.00;100612.03;4963239;28;20042;-83
2022/01/02 07:11:21;;;;;;;9.23;6.10;;;;;;;7.96;100.00;100615.50;4942810;28;20053;-84
2022/01/02 07:13:48;;;;;;;13.13;6.43;;;;;;;7.93;100.00;100615.56;4944682;28;20154;-84
2022/01/02 07:16:14;;;;;;;9.02;6.13;;;;;;;7.93;100.00;100618.19;4957851;28;20278;-86
2022/01/02 07:18:41;;;;;;;12.18;7.28;;;;;;;7.94;100.00;100613.78;4955815;28;20043;-84
2022/01/02 07:21:08;;;;;;;10.93;6.25;;;;;;;7.93;100.00;100627.84;4926859;28;20050;-86
2022/01/02 07:23:35;;;;;;;15.23;7.07;;;;;;;7.95;100.00;100647.09;4960714;28;20042;-84
2022/01/02 07:26:02;;;;;;;10.43;7.40;;;;;;;7.91;100.00;100646.28;4940603;28;20050;-84
2022/01/02 07:28:33;;;;;;;9.13;5.88;;;;;;;7.82;100.00;100647.22;4973000;28;20038;-84
2022/01/02 07:31:00;;;;;;;10.35;6.25;;;;;;;7.79;100.00;100646.38;4970483;28;20042;-85
2022/01/02 07:33:27;;;;;;;10.00;6.82;;;;;;;7.79;100.00;100630.59;4958816;28;20053;-84
2022/01/02 07:35:54;;;;;;;8.95;5.90;;;;;;;7.79;100.00;100644.59;4941002;28;20050;-84
2022/01/02 07:38:30;;;;;;;10.75;6.57;;;;;;;7.79;100.00;100635.84;4959388;28;20047;-84
2022/01/02 07:40:57;;;;;;;11.45;6.95;;;;;;;7.77;100.00;100606.94;4942645;28;20396;-84
2022/01/02 07:43:24;;;;;;;12.43;7.05;;;;;;;7.87;100.00;100613.84;4960253;28;20538;-84
2022/01/02 07:45:50;;;;;;;10.02;6.43;;;;;;;7.86;100.00;100622.63;4960063;28;20046;-87
2022/01/02 07:48:18;;;;;;;9.95;6.57;;;;;;;7.80;100.00;100617.41;4938280;28;20043;-85
2022/01/02 07:50:44;;;;;;;12.03;6.90;;;;;;;7.82;100.00;100610.41;4958265;28;20043;-85
2022/01/02 07:53:11;;;;;;;10.90;6.40;;;;;;;7.83;100.00;100600.75;4955418;28;20046;-87
2022/01/02 07:55:38;;;;;;;10.15;6.55;;;;;;;7.86;100.00;100605.97;4984589;28;20137;-86
2022/01/02 07:58:10;;;;;;;15.02;6.20;;;;;;;7.87;100.00;100602.47;4944495;28;20038;-85
2022/01/02 08:00:36;;;;;;;12.37;6.73;;;;;;;7.86;100.00;100606.84;4943203;28;20080;-85
2022/01/02 08:03:03;;;;;;;12.18;6.72;;;;;;;7.92;100.00;100611.19;4960972;28;20444;-85
2022/01/02 08:05:31;;;;;;;10.75;6.35;;;;;;;7.88;100.00;100605.06;4954749;28;20047;-85
2022/01/02 08:07:58;;;;;;;11.73;6.70;;;;;;;7.91;100.00;100598.94;4949828;28;20042;-85
2022/01/02 08:10:27;;;;;;;12.38;6.03;;;;;;;7.94;100.00;100598.00;4955150;28;20109;-89
2022/01/02 08:12:56;;;;;;;9.35;6.68;;;;;;;7.93;100.00;100598.91;4940649;28;20050;-86
2022/01/02 08:15:23;;;;;;;10.57;6.87;;;;;;;7.93;100.00;100598.91;4967383;28;20046;-84
2022/01/02 08:17:50;;;;;;;14.80;7.13;;;;;;;7.97;100.00;100597.97;4941832;28;20039;-84
2022/01/02 08:20:17;;;;;;;10.38;6.97;;;;;;;8.01;100.00;100591.81;4942803;28;20049;-85
2022/01/02 08:22:44;;;;;;;10.75;6.72;;;;;;;8.05;100.00;100588.22;4935973;28;20043;-86
2022/01/02 08:25:10;;;;;;;12.30;7.57;;;;;;;8.05;100.00;100575.94;4957687;28;20042;-84
2022/01/02 08:27:38;;;;;;;11.77;6.80;;;;;;;8.18;100.00;100584.59;4938832;28;20129;-83
2022/01/02 08:30:06;;;;;;;10.80;6.20;;;;;;;8.16;100.00;100574.06;4960075;28;20080;-84
2022/01/02 08:32:34;;;;;;;9.48;6.88;;;;;;;8.24;100.00;100574.00;4943191;28;20050;-88
2022/01/02 08:35:00;;;;;;;10.35;6.28;;;;;;;8.30;100.00;100568.63;4951671;28;20074;-87
2022/01/02 08:37:29;;;;;;;10.35;6.80;;;;;;;8.25;100.00;100557.31;4943782;28;20515;-86
2022/01/02 08:39:56;;;;;;;9.52;6.25;;;;;;;8.31;100.00;100556.34;4956591;28;20074;-83
2022/01/02 08:42:23;;;;;;;11.23;6.03;;;;;;;8.30;100.00;100544.94;4977179;28;20042;-85
2022/01/02 08:44:50;;;;;;;9.73;5.63;;;;;;;8.35;100.00;100555.44;4975558;28;20042;-84
2022/01/02 08:47:16;;;;;;;9.65;5.90;;;;;;;8.37;100.00;100543.13;4954921;28;20133;-86
2022/01/02 08:49:44;;;;;;;10.45;7.10;;;;;;;8.39;100.00;100544.84;4960759;28;20057;-85
2022/01/02 08:52:12;;;;;;;88.05;55.15;;;;;;;8.52;100.00;100542.94;4942700;28;20038;-85
2022/01/02 08:54:38;;;;;;;12.95;8.15;;;;;;;8.55;100.00;100542.88;4976058;28;20046;-84
2022/01/02 08:57:05;;;;;;;11.23;6.65;;;;;;;8.57;100.00;100532.31;4964429;28;20097;-85
2022/01/02 08:59:32;;;;;;;13.25;9.63;;;;;;;8.56;100.00;100536.72;4959056;28;20392;-84
2022/01/02 09:01:59;;;;;;;9.88;6.57;;;;;;;8.56;100.00;100533.22;4949742;28;20051;-82
2022/01/02 09:04:26;;;;;;;9.38;6.05;;;;;;;8.63;100.00;100526.97;4958194;28;20057;-86
2022/01/02 09:06:53;;;;;;;8.10;5.88;;;;;;;8.71;100.00;100525.97;4945560;28;20046;-84
2022/01/02 09:09:20;;;;;;;10.05;5.57;;;;;;;8.66;100.00;100519.00;4973392;28;20105;-83
2022/01/02 09:11:47;;;;;;;9.30;6.40;;;;;;;8.76;100.00;100523.28;4938414;28;20038;-84
2022/01/02 09:14:14;;;;;;;8.70;5.07;;;;;;;8.78;100.00;100510.94;4958246;28;20046;-86
2022/01/02 09:16:40;;;;;;;10.07;7.47;;;;;;;8.87;100.00;100516.06;4957190;28;20107;-86
2022/01/02 09:19:07;;;;;;;9.18;5.63;;;;;;;8.89;100.00;100501.09;4956464;28;20636;-86
2022/01/02 09:21:34;;;;;;;9.20;7.57;;;;;;;8.96;100.00;100501.88;4957744;28;20492;-84
2022/01/02 09:24:00;;;;;;;12.00;7.32;;;;;;;8.94;100.00;100501.91;4959530;28;20093;-86
2022/01/02 09:26:27;;;;;;;9.82;5.43;;;;;;;9.05;100.00;100508.75;4954626;28;20256;-84
2022/01/02 09:28:54;;;;;;;9.50;5.97;;;;;;;9.06;100.00;100500.81;4947049;28;20503;-85
2022/01/02 09:31:35;;;;;;;11.60;7.40;;;;;;;9.16;100.00;100502.41;4954096;28;20050;-84
2022/01/02 09:34:17;;;;;;;11.63;5.80;;;;;;;9.27;100.00;100499.59;4974858;28;20098;-86
2022/01/02 09:36:51;;;;;;;11.48;6.20;;;;;;;9.34;100.00;100501.22;4963683;28;20046;-84
2022/01/02 09:39:18;;;;;;;9.40;5.38;;;;;;;9.33;100.00;100504.75;4938517;28;20035;-85
2022/01/02 09:41:45;;;;;;;7.38;5.43;;;;;;;9.37;100.00;100501.16;4938379;28;20046;-85
2022/01/02 09:44:12;;;;;;;10.52;6.63;;;;;;;9.36;100.00;100486.25;4945219;28;20046;-86
2022/01/02 09:46:41;;;;;;;8.77;4.85;;;;;;;9.39;100.00;100491.44;4956675;28;20058;-84
2022/01/02 09:49:09;;;;;;;13.05;6.05;;;;;;;9.37;100.00;100487.97;4937803;28;20042;-85
2022/01/02 09:51:35;;;;;;;11.27;4.97;;;;;;;9.38;100.00;100483.56;4960170;28;20455;-85
2022/01/02 09:54:02;;;;;;;8.82;5.47;;;;;;;9.39;100.00;100480.91;4941923;28;20042;-85
2022/01/02 09:56:32;;;;;;;6.70;4.50;;;;;;;9.49;100.00;100474.56;4958953;28;20050;-86
2022/01/02 09:59:01;;;;;;;11.18;6.75;;;;;;;9.56;100.00;100485.84;4958107;28;20042;-86
2022/01/02 10:01:32;;;;;;;7.60;5.57;;;;;;;9.57;100.00;100477.91;4961634;28;20313;-85
2022/01/02 10:03:59;;;;;;;9.25;5.63;;;;;;;9.53;100.00;100473.63;4963069;28;20046;-85
2022/01/02 10:06:48;;;;;;;8.80;5.28;;;;;;;9.57;100.00;100469.13;4983201;28;20047;-84
2022/01/02 10:09:33;;;;;;;8.82;5.07;;;;;;;9.67;100.00;100468.09;5003184;28;20026;-84
2022/01/02 10:12:42;;;;;;;10.05;4.80;;;;;;;9.69;100.00;100452.22;4975196;28;20057;-86
2022/01/02 10:15:23;;;;;;;7.85;4.25;;;;;;;9.72;100.00;100460.06;4942959;28;20045;-87
2022/01/02 10:18:08;;;;;;;12.32;6.80;;;;;;;9.81;100.00;100459.88;4955616;28;20756;-85
2022/01/02 10:20:38;;;;;;;18.17;12.35;;;;;;;9.82;100.00;100448.41;4970830;28;20060;-82
2022/01/02 10:23:09;;;;;;;8.60;5.50;;;;;;;9.86;100.00;100448.31;4961016;28;20109;-87
2022/01/02 10:26:13;;;;;;;8.27;5.20;;;;;;;9.90;100.00;100435.06;4962775;28;20038;-83
2022/01/02 10:28:47;;;;;;;10.50;5.18;;;;;;;9.94;100.00;100420.91;4985583;28;20049;-86
2022/01/02 10:31:17;;;;;;;7.95;5.75;;;;;;;9.96;100.00;100417.34;4965527;28;20512;-88
2022/01/02 10:33:50;;;;;;;7.00;4.40;;;;;;;10.01;100.00;100411.97;4946140;28;20050;-85
2022/01/02 10:36:28;;;;;;;34.50;19.45;;;;;;;10.08;100.00;100401.22;4958464;28;20051;-84
2022/01/02 10:39:04;;;;;;;7.18;4.00;;;;;;;10.20;100.00;100394.81;4974034;28;20108;-83
2022/01/02 10:41:33;;;;;;;10.45;5.47;;;;;;;10.30;100.00;100411.31;4952002;28;20125;-84
2022/01/02 10:44:30;;;;;;;6.65;4.55;;;;;;;10.22;100.00;100397.41;4957083;28;20073;-85
2022/01/02 10:47:22;;;;;;;8.20;4.55;;;;;;;10.17;100.00;100373.72;4948202;28;20053;-85
2022/01/02 10:50:03;;;;;;;7.47;4.30;;;;;;;10.22;100.00;100356.06;4959385;28;20062;-84
2022/01/02 10:52:37;;;;;;;6.82;4.05;;;;;;;10.24;100.00;100362.16;4975583;28;20038;-83
2022/01/02 10:55:24;;;;;;;7.85;4.43;;;;;;;10.20;100.00;100357.84;4962081;28;20057;-84
2022/01/02 10:57:54;;;;;;;9.30;5.50;;;;;;;10.25;100.00;100341.91;4964643;28;20439;-84
2022/01/02 11:00:24;;;;;;;9.55;5.22;;;;;;;10.19;100.00;100342.03;4942547;28;20444;-83
2022/01/02 11:02:51;;;;;;;6.00;4.03;;;;;;;10.29;100.00;100343.59;4958767;28;20038;-84
2022/01/02 11:05:22;;;;;;;7.35;4.30;;;;;;;10.39;100.00;100342.44;4954631;28;20447;-84
2022/01/02 11:07:51;;;;;;;8.30;4.15;;;;;;;10.46;100.00;100346.69;4955202;28;20057;-84
2022/01/02 11:10:21;;;;;;;5.28;3.72;;;;;;;10.47;100.00;100345.75;4958832;28;20054;-84
2022/01/02 11:12:50;;;;;;;7.22;3.78;;;;;;;10.53;100.00;100336.84;4953821;28;20501;-85
2022/01/02 11:15:19;;;;;;;5.80;4.20;;;;;;;10.53;100.00;100340.34;4934422;28;21680;-86
2022/01/02 11:17:46;;;;;;;6.70;3.30;;;;;;;10.56;100.00;100327.03;4951242;28;20042;-85
2022/01/02 11:20:33;;;;;;;6.38;3.47;;;;;;;10.65;100.00;100336.50;4944324;28;20042;-84
2022/01/02 11:23:22;;;;;;;5.60;3.60;;;;;;;10.61;100.00;100319.00;4956587;28;20547;-86
2022/01/02 11:26:31;;;;;;;9.63;3.67;;;;;;;10.64;100.00;100311.00;4975874;28;20182;-84
2022/01/02 11:29:13;;;;;;;8.15;3.30;;;;;;;10.58;100.00;100295.28;4984267;28;20050;-86
2022/01/02 11:31:43;;;;;;;6.05;3.03;;;;;;;10.56;100.00;100292.69;4957740;28;20043;-86
2022/01/02 11:34:46;;;;;;;5.70;3.70;;;;;;;10.50;100.00;100284.94;4960613;28;20076;-85
2022/01/02 11:37:16;;;;;;;6.88;3.90;;;;;;;10.61;100.00;100268.81;4927668;28;20543;-85
2022/01/02 11:39:52;;;;;;;6.88;3.92;;;;;;;10.58;100.00;100264.47;4952627;28;20039;-83